sensor_id;sensor_type;location;lat;lon;timestamp;temperature;humidity
15231;DHT22;32569;51.762;8.564;2023-02-17T00:01:09;9.30;99.90
15231;DHT22;32569;51.762;8.564;2023-02-17T00:03:37;9.30;99.90
15231;DHT22;32569;51.762;8.564;2023-02-17T00:06:05;9.30;99.90
15231;DHT22;32569;51.762;8.564;2023-02-17T00:08:32;9.40;99.90
15231;DHT22;32569;51.762;8.564;2023-02-17T00:11:00;9.30;99.90
15231;DHT22;32569;51.762;8.564;2023-02-17T00:13:27;9.30;99.90
15231;DHT22;32569;51.762;8.564;2023-02-17T00:15:53;9.30;99.90
15231;DHT22;32569;51.762;8.564;2023-02-17T00:18:20;9.30;99.90
15231;DHT22;32569;51.762;8.564;2023-02-17T00:20:48;9.40;99.90
15231;DHT22;32569;51.762;8.564;2023-02-17T00:23:15;9.40;99.90
15231;DHT22;32569;51.762;8.564;2023-02-17T00:25:41;9.40;99.90
15231;DHT22;32569;51.762;8.564;2023-02-17T00:28:08;9.40;99.90
15231;DHT22;32569;51.762;8.564;2023-02-17T00:30:36;9.40;99.90
15231;DHT22;32569;51.762;8.564;2023-02-17T00:33:02;9.30;99.90
15231;DHT22;32569;51.762;8.564;2023-02-17T00:35:29;9.30;99.90
15231;DHT22;32569;51.762;8.564;2023-02-17T00:37:57;9.30;99.90
15231;DHT22;32569;51.762;8.564;2023-02-17T00:40:24;9.20;99.90
15231;DHT22;32569;51.762;8.564;2023-02-17T00:42:53;9.30;99.90
15231;DHT22;32569;51.762;8.564;2023-02-17T00:45:20;9.20;99.90
15231;DHT22;32569;51.762;8.564;2023-02-17T00:47:47;9.20;99.90
15231;DHT22;32569;51.762;8.564;2023-02-17T00:50:14;9.20;99.90
15231;DHT22;32569;51.762;8.564;2023-02-17T00:52:40;9.20;99.90
15231;DHT22;32569;51.762;8.564;2023-02-17T00:55:08;9.20;99.90
15231;DHT22;32569;51.762;8.564;2023-02-17T00:57:35;9.20;99.90
15231;DHT22;32569;51.762;8.564;2023-02-17T01:00:02;9.20;99.90
15231;DHT22;32569;51.762;8.564;2023-02-17T01:02:29;9.20;99.90
15231;DHT22;32569;51.762;8.564;2023-02-17T01:04:56;9.20;99.90
15231;DHT22;32569;51.762;8.564;2023-02-17T01:07:22;9.30;99.90
15231;DHT22;32569;51.762;8.564;2023-02-17T01:09:49;9.30;99.90
15231;DHT22;32569;51.762;8.564;2023-02-17T01:12:17;9.20;99.90
15231;DHT22;32569;51.762;8.564;2023-02-17T01:14:44;9.30;99.90
15231;DHT22;32569;51.762;8.564;2023-02-17T01:17:11;9.30;99.90
15231;DHT22;32569;51.762;8.564;2023-02-17T01:19:37;9.30;99.90
15231;DHT22;32569;51.762;8.564;2023-02-17T01:22:04;9.30;99.90
15231;DHT22;32569;51.762;8.564;2023-02-17T01:24:30;9.20;99.90
15231;DHT22;32569;51.762;8.564;2023-02-17T01:26:57;9.20;99.90
15231;DHT22;32569;51.762;8.564;2023-02-17T01:29:25;9.20;99.90
15231;DHT22;32569;51.762;8.564;2023-02-17T01:31:52;9.20;99.90
15231;DHT22;32569;51.762;8.564;2023-02-17T01:34:18;9.30;99.90
15231;DHT22;32569;51.762;8.564;2023-02-17T01:36:45;9.20;99.90
15231;DHT22;32569;51.762;8.564;2023-02-17T01:39:12;9.20;99.90
15231;DHT22;32569;51.762;8.564;2023-02-17T01:41:39;9.20;99.90
15231;DHT22;32569;51.762;8.564;2023-02-17T01:44:10;9.20;99.90
15231;DHT22;32569;51.762;8.564;2023-02-17T01:46:40;9.30;99.90
15231;DHT22;32569;51.762;8.564;2023-02-17T01:49:14;9.30;99.90
15231;DHT22;32569;51.762;8.564;2023-02-17T01:51:44;9.30;99.90
15231;DHT22;32569;51.762;8.564;2023-02-17T01:54:14;9.30;99.90
15231;DHT22;32569;51.762;8.564;2023-02-17T01:56:43;9.30;99.90
15231;DHT22;32569;51.762;8.564;2023-02-17T01:59:16;9.30;99.90
15231;DHT22;32569;51.762;8.564;2023-02-17T02:01:46;9.30;99.90
15231;DHT22;32569;51.762;8.564;2023-02-17T02:04:18;9.30;99.90
15231;DHT22;32569;51.762;8.564;2023-02-17T02:06:46;9.20;99.90
15231;DHT22;32569;51.762;8.564;2023-02-17T02:09:17;9.20;99.90
15231;DHT22;32569;51.762;8.564;2023-02-17T02:11:47;9.30;99.90
15231;DHT22;32569;51.762;8.564;2023-02-17T02:14:13;9.30;99.90
15231;DHT22;32569;51.762;8.564;2023-02-17T02:16:46;9.30;99.90
15231;DHT22;32569;51.762;8.564;2023-02-17T02:19:32;9.30;99.90
15231;DHT22;32569;51.762;8.564;2023-02-17T02:22:22;9.30;99.90
15231;DHT22;32569;51.762;8.564;2023-02-17T02:24:58;9.30;99.90
15231;DHT22;32569;51.762;8.564;2023-02-17T02:27:50;9.30;99.90
15231;DHT22;32569;51.762;8.564;2023-02-17T02:30:42;9.30;99.90
15231;DHT22;32569;51.762;8.564;2023-02-17T02:33:19;9.30;99.90
15231;DHT22;32569;51.762;8.564;2023-02-17T02:35:51;9.30;99.90
15231;DHT22;32569;51.762;8.564;2023-02-17T02:38:24;9.30;99.90
15231;DHT22;32569;51.762;8.564;2023-02-17T02:40:56;9.30;99.90
15231;DHT22;32569;51.762;8.564;2023-02-17T02:43:25;9.30;99.90
15231;DHT22;32569;51.762;8.564;2023-02-17T02:45:52;9.20;99.90
15231;DHT22;32569;51.762;8.564;2023-02-17T02:48:20;9.30;99.90
15231;DHT22;32569;51.762;8.564;2023-02-17T02:51:07;9.30;99.90
15231;DHT22;32569;51.762;8.564;2023-02-17T02:54:00;9.40;99.90
15231;DHT22;32569;51.762;8.564;2023-02-17T02:56:39;9.30;99.90
15231;DHT22;32569;51.762;8.564;2023-02-17T02:59:16;9.30;99.90
15231;DHT22;32569;51.762;8.564;2023-02-17T03:01:52;9.30;99.90
15231;DHT22;32569;51.762;8.564;2023-02-17T03:04:26;9.30;99.90
15231;DHT22;32569;51.762;8.564;2023-02-17T03:07:04;9.30;99.90
15231;DHT22;32569;51.762;8.564;2023-02-17T03:09:32;9.30;99.90
15231;DHT22;32569;51.762;8.564;2023-02-17T03:11:59;9.20;99.90
15231;DHT22;32569;51.762;8.564;2023-02-17T03:14:27;9.20;99.90
15231;DHT22;32569;51.762;8.564;2023-02-17T03:16:57;9.30;99.90
15231;DHT22;32569;51.762;8.564;2023-02-17T03:19:25;9.20;99.90
15231;DHT22;32569;51.762;8.564;2023-02-17T03:21:56;9.20;99.90
15231;DHT22;32569;51.762;8.564;2023-02-17T03:24:24;9.20;99.90
15231;DHT22;32569;51.762;8.564;2023-02-17T03:26:51;9.30;99.90
15231;DHT22;32569;51.762;8.564;2023-02-17T03:29:17;9.30;99.90
15231;DHT22;32569;51.762;8.564;2023-02-17T03:31:44;9.30;99.90
15231;DHT22;32569;51.762;8.564;2023-02-17T03:34:11;9.30;99.90
15231;DHT22;32569;51.762;8.564;2023-02-17T03:36:39;9.30;99.90
15231;DHT22;32569;51.762;8.564;2023-02-17T03:39:05;9.30;99.90
15231;DHT22;32569;51.762;8.564;2023-02-17T03:41:32;9.30;99.90
15231;DHT22;32569;51.762;8.564;2023-02-17T03:43:59;9.30;99.90
15231;DHT22;32569;51.762;8.564;2023-02-17T03:46:26;9.30;99.90
15231;DHT22;32569;51.762;8.564;2023-02-17T03:48:55;9.30;99.90
15231;DHT22;32569;51.762;8.564;2023-02-17T03:51:23;9.30;99.90
15231;DHT22;32569;51.762;8.564;2023-02-17T03:53:51;9.30;99.90
15231;DHT22;32569;51.762;8.564;2023-02-17T03:56:18;9.30;99.90
15231;DHT22;32569;51.762;8.564;2023-02-17T03:58:45;9.40;99.90
15231;DHT22;32569;51.762;8.564;2023-02-17T04:01:12;9.40;99.90
15231;DHT22;32569;51.762;8.564;2023-02-17T04:03:42;9.40;99.90
15231;DHT22;32569;51.762;8.564;2023-02-17T04:06:09;9.40;99.90
15231;DHT22;32569;51.762;8.564;2023-02-17T04:08:37;9.40;99.90
15231;DHT22;32569;51.762;8.564;2023-02-17T04:11:07;9.40;99.90
15231;DHT22;32569;51.762;8.564;2023-02-17T04:13:40;9.40;99.90
15231;DHT22;32569;51.762;8.564;2023-02-17T04:16:07;9.50;99.90
15231;DHT22;32569;51.762;8.564;2023-02-17T04:18:35;9.50;99.90
15231;DHT22;32569;51.762;8.564;2023-02-17T04:21:02;9.50;99.90
15231;DHT22;32569;51.762;8.564;2023-02-17T04:23:29;9.50;99.90
15231;DHT22;32569;51.762;8.564;2023-02-17T04:25:56;9.50;99.90
15231;DHT22;32569;51.762;8.564;2023-02-17T04:28:24;9.50;99.90
15231;DHT22;32569;51.762;8.564;2023-02-17T04:30:55;9.50;99.90
15231;DHT22;32569;51.762;8.564;2023-02-17T04:33:22;9.50;99.90
15231;DHT22;32569;51.762;8.564;2023-02-17T04:35:49;9.50;99.90
15231;DHT22;32569;51.762;8.564;2023-02-17T04:38:16;9.50;99.90
15231;DHT22;32569;51.762;8.564;2023-02-17T04:40:43;9.60;99.90
15231;DHT22;32569;51.762;8.564;2023-02-17T04:43:09;9.60;99.90
15231;DHT22;32569;51.762;8.564;2023-02-17T04:45:37;9.60;99.90
15231;DHT22;32569;51.762;8.564;2023-02-17T04:48:04;9.60;99.90
15231;DHT22;32569;51.762;8.564;2023-02-17T04:50:30;9.60;99.90
15231;DHT22;32569;51.762;8.564;2023-02-17T04:52:57;9.60;99.90
15231;DHT22;32569;51.762;8.564;2023-02-17T04:55:24;9.70;99.90
15231;DHT22;32569;51.762;8.564;2023-02-17T04:57:50;9.70;99.90
15231;DHT22;32569;51.762;8.564;2023-02-17T05:00:18;9.80;99.90
15231;DHT22;32569;51.762;8.564;2023-02-17T05:02:46;9.80;99.90
15231;DHT22;32569;51.762;8.564;2023-02-17T05:05:12;9.80;99.90
15231;DHT22;32569;51.762;8.564;2023-02-17T05:07:40;9.90;99.90
15231;DHT22;32569;51.762;8.564;2023-02-17T05:10:07;9.90;99.90
15231;DHT22;32569;51.762;8.564;2023-02-17T05:12:34;9.90;99.90
15231;DHT22;32569;51.762;8.564;2023-02-17T05:15:03;9.90;99.90
15231;DHT22;32569;51.762;8.564;2023-02-17T05:17:29;9.90;99.90
15231;DHT22;32569;51.762;8.564;2023-02-17T05:19:57;10.00;99.90
15231;DHT22;32569;51.762;8.564;2023-02-17T05:22:24;10.00;99.90
15231;DHT22;32569;51.762;8.564;2023-02-17T05:24:51;10.00;99.90
15231;DHT22;32569;51.762;8.564;2023-02-17T05:27:21;10.00;99.90
15231;DHT22;32569;51.762;8.564;2023-02-17T05:29:48;10.10;99.90
15231;DHT22;32569;51.762;8.564;2023-02-17T05:32:16;10.00;99.90
15231;DHT22;32569;51.762;8.564;2023-02-17T05:34:42;10.10;99.90
15231;DHT22;32569;51.762;8.564;2023-02-17T05:37:10;10.10;99.90
15231;DHT22;32569;51.762;8.564;2023-02-17T05:39:37;10.10;99.90
15231;DHT22;32569;51.762;8.564;2023-02-17T05:42:04;10.10;99.90
15231;DHT22;32569;51.762;8.564;2023-02-17T05:44:31;10.10;99.90
15231;DHT22;32569;51.762;8.564;2023-02-17T05:46:57;10.20;99.90
15231;DHT22;32569;51.762;8.564;2023-02-17T05:49:24;10.20;99.90
15231;DHT22;32569;51.762;8.564;2023-02-17T05:51:51;10.20;99.90
15231;DHT22;32569;51.762;8.564;2023-02-17T05:54:19;10.20;99.90
15231;DHT22;32569;51.762;8.564;2023-02-17T05:56:46;10.30;99.90
15231;DHT22;32569;51.762;8.564;2023-02-17T05:59:12;10.30;99.90
15231;DHT22;32569;51.762;8.564;2023-02-17T06:01:39;10.30;99.90
15231;DHT22;32569;51.762;8.564;2023-02-17T06:04:06;10.30;99.90
15231;DHT22;32569;51.762;8.564;2023-02-17T06:06:32;10.30;99.90
15231;DHT22;32569;51.762;8.564;2023-02-17T06:08:59;10.30;99.90
15231;DHT22;32569;51.762;8.564;2023-02-17T06:11:27;10.30;99.90
15231;DHT22;32569;51.762;8.564;2023-02-17T06:13:53;10.40;99.90
15231;DHT22;32569;51.762;8.564;2023-02-17T06:16:20;10.40;99.90
15231;DHT22;32569;51.762;8.564;2023-02-17T06:18:47;10.30;99.90
15231;DHT22;32569;51.762;8.564;2023-02-17T06:21:13;10.40;99.90
15231;DHT22;32569;51.762;8.564;2023-02-17T06:23:40;10.40;99.90
15231;DHT22;32569;51.762;8.564;2023-02-17T06:26:06;10.40;99.90
15231;DHT22;32569;51.762;8.564;2023-02-17T06:28:34;10.40;99.90
15231;DHT22;32569;51.762;8.564;2023-02-17T06:31:01;10.40;99.90
15231;DHT22;32569;51.762;8.564;2023-02-17T06:33:28;10.40;99.90
15231;DHT22;32569;51.762;8.564;2023-02-17T06:35:54;10.40;99.90
15231;DHT22;32569;51.762;8.564;2023-02-17T06:38:21;10.40;99.90
15231;DHT22;32569;51.762;8.564;2023-02-17T06:40:48;10.40;99.90
15231;DHT22;32569;51.762;8.564;2023-02-17T06:43:14;10.40;99.90
15231;DHT22;32569;51.762;8.564;2023-02-17T06:45:42;10.40;99.90
15231;DHT22;32569;51.762;8.564;2023-02-17T06:48:09;10.40;99.90
15231;DHT22;32569;51.762;8.564;2023-02-17T06:50:35;10.50;99.90
15231;DHT22;32569;51.762;8.564;2023-02-17T06:53:02;10.50;99.90
15231;DHT22;32569;51.762;8.564;2023-02-17T06:55:29;10.50;99.90
15231;DHT22;32569;51.762;8.564;2023-02-17T06:57:56;10.50;99.90
15231;DHT22;32569;51.762;8.564;2023-02-17T07:00:22;10.40;99.90
15231;DHT22;32569;51.762;8.564;2023-02-17T07:02:50;10.50;99.90
15231;DHT22;32569;51.762;8.564;2023-02-17T07:05:17;10.50;99.90
15231;DHT22;32569;51.762;8.564;2023-02-17T07:07:44;10.60;99.90
15231;DHT22;32569;51.762;8.564;2023-02-17T07:10:11;10.60;99.90
15231;DHT22;32569;51.762;8.564;2023-02-17T07:12:38;10.60;99.90
15231;DHT22;32569;51.762;8.564;2023-02-17T07:15:05;10.60;99.90
15231;DHT22;32569;51.762;8.564;2023-02-17T07:17:31;10.60;99.90
15231;DHT22;32569;51.762;8.564;2023-02-17T07:19:59;10.60;99.90
15231;DHT22;32569;51.762;8.564;2023-02-17T07:22:26;10.60;99.90
15231;DHT22;32569;51.762;8.564;2023-02-17T07:24:53;10.60;99.90
15231;DHT22;32569;51.762;8.564;2023-02-17T07:27:19;10.60;99.90
15231;DHT22;32569;51.762;8.564;2023-02-17T07:29:46;10.70;99.90
15231;DHT22;32569;51.762;8.564;2023-02-17T07:32:12;10.60;99.90
15231;DHT22;32569;51.762;8.564;2023-02-17T07:34:39;10.70;99.90
15231;DHT22;32569;51.762;8.564;2023-02-17T07:37:08;10.70;99.90
15231;DHT22;32569;51.762;8.564;2023-02-17T07:39:34;10.70;99.90
15231;DHT22;32569;51.762;8.564;2023-02-17T07:42:01;10.70;99.90
15231;DHT22;32569;51.762;8.564;2023-02-17T07:44:29;10.70;99.90
15231;DHT22;32569;51.762;8.564;2023-02-17T07:46:56;10.70;99.90
15231;DHT22;32569;51.762;8.564;2023-02-17T07:49:23;10.70;99.90
15231;DHT22;32569;51.762;8.564;2023-02-17T07:51:49;10.70;99.90
15231;DHT22;32569;51.762;8.564;2023-02-17T07:54:17;10.70;99.90
15231;DHT22;32569;51.762;8.564;2023-02-17T07:56:44;10.70;99.90
15231;DHT22;32569;51.762;8.564;2023-02-17T07:59:11;10.70;99.90
15231;DHT22;32569;51.762;8.564;2023-02-17T08:01:39;10.70;99.90
15231;DHT22;32569;51.762;8.564;2023-02-17T08:04:06;10.70;99.90
15231;DHT22;32569;51.762;8.564;2023-02-17T08:06:32;10.70;99.90
15231;DHT22;32569;51.762;8.564;2023-02-17T08:08:59;10.80;99.90
15231;DHT22;32569;51.762;8.564;2023-02-17T08:11:44;10.80;99.90
15231;DHT22;32569;51.762;8.564;2023-02-17T08:14:30;10.80;99.90
15231;DHT22;32569;51.762;8.564;2023-02-17T08:16:57;10.80;99.90
15231;DHT22;32569;51.762;8.564;2023-02-17T08:19:24;10.70;99.90
15231;DHT22;32569;51.762;8.564;2023-02-17T08:21:51;10.70;99.90
15231;DHT22;32569;51.762;8.564;2023-02-17T08:24:18;10.70;99.90
15231;DHT22;32569;51.762;8.564;2023-02-17T08:26:47;10.70;99.90
15231;DHT22;32569;51.762;8.564;2023-02-17T08:29:14;10.70;99.90
15231;DHT22;32569;51.762;8.564;2023-02-17T08:31:41;10.70;99.90
15231;DHT22;32569;51.762;8.564;2023-02-17T08:34:09;10.70;99.90
15231;DHT22;32569;51.762;8.564;2023-02-17T08:36:36;10.70;99.90
15231;DHT22;32569;51.762;8.564;2023-02-17T08:39:04;10.80;99.90
15231;DHT22;32569;51.762;8.564;2023-02-17T08:41:32;10.80;99.90
15231;DHT22;32569;51.762;8.564;2023-02-17T08:44:05;10.80;99.90
15231;DHT22;32569;51.762;8.564;2023-02-17T08:46:33;10.90;99.90
15231;DHT22;32569;51.762;8.564;2023-02-17T08:49:00;10.90;99.90
15231;DHT22;32569;51.762;8.564;2023-02-17T08:51:27;10.90;99.90
15231;DHT22;32569;51.762;8.564;2023-02-17T08:53:55;11.00;99.90
15231;DHT22;32569;51.762;8.564;2023-02-17T08:56:22;11.00;99.90
15231;DHT22;32569;51.762;8.564;2023-02-17T08:58:50;11.00;99.90
15231;DHT22;32569;51.762;8.564;2023-02-17T09:01:19;11.00;99.90
15231;DHT22;32569;51.762;8.564;2023-02-17T09:03:47;11.10;99.90
15231;DHT22;32569;51.762;8.564;2023-02-17T09:06:14;11.10;99.90
15231;DHT22;32569;51.762;8.564;2023-02-17T09:08:42;11.10;99.90
15231;DHT22;32569;51.762;8.564;2023-02-17T09:11:09;11.10;99.90
15231;DHT22;32569;51.762;8.564;2023-02-17T09:13:37;11.10;99.90
15231;DHT22;32569;51.762;8.564;2023-02-17T09:16:04;11.10;99.90
15231;DHT22;32569;51.762;8.564;2023-02-17T09:18:32;11.10;99.90
15231;DHT22;32569;51.762;8.564;2023-02-17T09:21:03;11.20;99.90
15231;DHT22;32569;51.762;8.564;2023-02-17T09:23:30;11.20;99.90
15231;DHT22;32569;51.762;8.564;2023-02-17T09:26:00;11.20;99.90
15231;DHT22;32569;51.762;8.564;2023-02-17T09:28:28;11.20;99.90
15231;DHT22;32569;51.762;8.564;2023-02-17T09:30:55;11.20;99.90
15231;DHT22;32569;51.762;8.564;2023-02-17T09:33:22;11.20;99.90
15231;DHT22;32569;51.762;8.564;2023-02-17T09:35:50;11.20;99.90
15231;DHT22;32569;51.762;8.564;2023-02-17T09:38:17;11.20;99.90
15231;DHT22;32569;51.762;8.564;2023-02-17T09:40:45;11.20;99.90
15231;DHT22;32569;51.762;8.564;2023-02-17T09:43:15;11.20;99.90
15231;DHT22;32569;51.762;8.564;2023-02-17T09:45:47;11.30;99.90
15231;DHT22;32569;51.762;8.564;2023-02-17T09:48:17;11.30;99.90
15231;DHT22;32569;51.762;8.564;2023-02-17T09:50:50;11.30;99.90
15231;DHT22;32569;51.762;8.564;2023-02-17T09:53:23;11.30;99.90
15231;DHT22;32569;51.762;8.564;2023-02-17T09:55:54;11.30;99.90
15231;DHT22;32569;51.762;8.564;2023-02-17T09:58:25;11.30;99.90
15231;DHT22;32569;51.762;8.564;2023-02-17T10:00:56;11.40;99.90
15231;DHT22;32569;51.762;8.564;2023-02-17T10:03:26;11.30;99.90
15231;DHT22;32569;51.762;8.564;2023-02-17T10:06:02;11.40;99.90
15231;DHT22;32569;51.762;8.564;2023-02-17T10:08:35;11.40;99.90
15231;DHT22;32569;51.762;8.564;2023-02-17T10:11:10;11.40;99.90
15231;DHT22;32569;51.762;8.564;2023-02-17T10:13:41;11.40;99.90
15231;DHT22;32569;51.762;8.564;2023-02-17T10:16:14;11.50;99.90
15231;DHT22;32569;51.762;8.564;2023-02-17T10:18:48;11.50;99.90
15231;DHT22;32569;51.762;8.564;2023-02-17T10:21:19;11.60;99.90
15231;DHT22;32569;51.762;8.564;2023-02-17T10:23:48;11.60;99.90
15231;DHT22;32569;51.762;8.564;2023-02-17T10:26:23;11.60;99.90
15231;DHT22;32569;51.762;8.564;2023-02-17T10:28:52;11.60;99.90
15231;DHT22;32569;51.762;8.564;2023-02-17T10:31:27;11.70;99.90
15231;DHT22;32569;51.762;8.564;2023-02-17T10:34:01;11.70;99.90
15231;DHT22;32569;51.762;8.564;2023-02-17T10:36:37;11.70;99.90
15231;DHT22;32569;51.762;8.564;2023-02-17T10:39:12;11.70;99.90
15231;DHT22;32569;51.762;8.564;2023-02-17T10:41:40;11.80;99.90
15231;DHT22;32569;51.762;8.564;2023-02-17T10:44:12;11.80;99.90
15231;DHT22;32569;51.762;8.564;2023-02-17T10:46:41;11.80;99.90
15231;DHT22;32569;51.762;8.564;2023-02-17T10:49:15;11.90;99.90
15231;DHT22;32569;51.762;8.564;2023-02-17T10:51:45;11.90;99.90
15231;DHT22;32569;51.762;8.564;2023-02-17T10:54:18;12.00;99.90
15231;DHT22;32569;51.762;8.564;2023-02-17T10:56:52;12.00;99.90
15231;DHT22;32569;51.762;8.564;2023-02-17T10:59:22;12.00;99.90
15231;DHT22;32569;51.762;8.564;2023-02-17T11:01:49;12.10;99.90
15231;DHT22;32569;51.762;8.564;2023-02-17T11:04:16;12.10;99.90
15231;DHT22;32569;51.762;8.564;2023-02-17T11:06:47;12.10;99.90
15231;DHT22;32569;51.762;8.564;2023-02-17T11:09:19;12.10;99.90
15231;DHT22;32569;51.762;8.564;2023-02-17T11:11:51;12.20;99.90
15231;DHT22;32569;51.762;8.564;2023-02-17T11:14:23;12.20;99.90
15231;DHT22;32569;51.762;8.564;2023-02-17T11:16:54;12.30;99.90
15231;DHT22;32569;51.762;8.564;2023-02-17T11:19:25;12.30;99.90
15231;DHT22;32569;51.762;8.564;2023-02-17T11:21:56;12.30;99.90
15231;DHT22;32569;51.762;8.564;2023-02-17T11:24:24;12.40;99.90
15231;DHT22;32569;51.762;8.564;2023-02-17T11:26:54;12.40;99.90
15231;DHT22;32569;51.762;8.564;2023-02-17T11:29:22;12.50;99.90
15231;DHT22;32569;51.762;8.564;2023-02-17T11:31:54;12.60;99.90
15231;DHT22;32569;51.762;8.564;2023-02-17T11:34:23;12.70;99.90
15231;DHT22;32569;51.762;8.564;2023-02-17T11:36:59;12.80;99.90
15231;DHT22;32569;51.762;8.564;2023-02-17T11:39:26;12.80;99.90
15231;DHT22;32569;51.762;8.564;2023-02-17T11:41:53;12.90;99.90
15231;DHT22;32569;51.762;8.564;2023-02-17T11:44:24;13.00;99.90
15231;DHT22;32569;51.762;8.564;2023-02-17T11:46:59;13.10;99.90
15231;DHT22;32569;51.762;8.564;2023-02-17T11:49:41;13.10;99.90
15231;DHT22;32569;51.762;8.564;2023-02-17T11:52:21;13.20;99.90
15231;DHT22;32569;51.762;8.564;2023-02-17T11:55:03;13.30;99.90
15231;DHT22;32569;51.762;8.564;2023-02-17T11:57:37;13.30;99.90
15231;DHT22;32569;51.762;8.564;2023-02-17T12:00:13;13.40;99.90
15231;DHT22;32569;51.762;8.564;2023-02-17T12:06:07;13.40;99.90
15231;DHT22;32569;51.762;8.564;2023-02-17T12:08:45;13.40;99.90
15231;DHT22;32569;51.762;8.564;2023-02-17T12:11:18;13.50;99.90
15231;DHT22;32569;51.762;8.564;2023-02-17T12:13:58;13.50;99.90
15231;DHT22;32569;51.762;8.564;2023-02-17T12:16:39;13.50;99.90
15231;DHT22;32569;51.762;8.564;2023-02-17T12:19:32;13.50;99.90
15231;DHT22;32569;51.762;8.564;2023-02-17T12:22:11;13.50;99.90
15231;DHT22;32569;51.762;8.564;2023-02-17T12:25:02;13.50;99.90
15231;DHT22;32569;51.762;8.564;2023-02-17T12:27:42;13.50;99.90
15231;DHT22;32569;51.762;8.564;2023-02-17T12:30:22;13.50;99.90
15231;DHT22;32569;51.762;8.564;2023-02-17T12:33:07;13.50;99.90
15231;DHT22;32569;51.762;8.564;2023-02-17T12:35:41;13.50;99.90
15231;DHT22;32569;51.762;8.564;2023-02-17T12:38:12;13.50;99.90
15231;DHT22;32569;51.762;8.564;2023-02-17T12:40:46;13.40;99.90
15231;DHT22;32569;51.762;8.564;2023-02-17T12:43:21;13.50;99.90
15231;DHT22;32569;51.762;8.564;2023-02-17T12:45:50;13.50;99.90
15231;DHT22;32569;51.762;8.564;2023-02-17T12:48:24;13.50;99.90
15231;DHT22;32569;51.762;8.564;2023-02-17T12:50:57;13.50;99.90
15231;DHT22;32569;51.762;8.564;2023-02-17T12:53:44;13.50;99.90
15231;DHT22;32569;51.762;8.564;2023-02-17T12:56:56;13.60;99.90
15231;DHT22;32569;51.762;8.564;2023-02-17T12:59:31;13.60;99.90
15231;DHT22;32569;51.762;8.564;2023-02-17T13:02:00;13.60;99.90
15231;DHT22;32569;51.762;8.564;2023-02-17T13:04:31;13.50;99.90
15231;DHT22;32569;51.762;8.564;2023-02-17T13:07:08;13.50;99.90
15231;DHT22;32569;51.762;8.564;2023-02-17T13:09:39;13.40;99.90
15231;DHT22;32569;51.762;8.564;2023-02-17T13:12:27;13.50;99.90
15231;DHT22;32569;51.762;8.564;2023-02-17T13:14:56;13.40;99.90
15231;DHT22;32569;51.762;8.564;2023-02-17T13:17:25;13.40;99.90
15231;DHT22;32569;51.762;8.564;2023-02-17T13:23:05;13.30;99.90
15231;DHT22;32569;51.762;8.564;2023-02-17T13:25:33;13.30;99.90
15231;DHT22;32569;51.762;8.564;2023-02-17T13:28:16;13.30;99.90
15231;DHT22;32569;51.762;8.564;2023-02-17T13:30:44;13.20;99.90
15231;DHT22;32569;51.762;8.564;2023-02-17T13:33:28;13.20;99.90
15231;DHT22;32569;51.762;8.564;2023-02-17T13:35:55;13.20;99.90
15231;DHT22;32569;51.762;8.564;2023-02-17T13:38:26;13.20;99.90
15231;DHT22;32569;51.762;8.564;2023-02-17T13:40:57;13.20;99.90
15231;DHT22;32569;51.762;8.564;2023-02-17T13:43:26;13.10;99.90
15231;DHT22;32569;51.762;8.564;2023-02-17T13:45:57;13.10;99.90
15231;DHT22;32569;51.762;8.564;2023-02-17T13:48:27;13.10;99.90
15231;DHT22;32569;51.762;8.564;2023-02-17T13:50:55;13.10;99.90
15231;DHT22;32569;51.762;8.564;2023-02-17T13:53:28;13.00;99.90
15231;DHT22;32569;51.762;8.564;2023-02-17T13:55:57;13.10;99.90
15231;DHT22;32569;51.762;8.564;2023-02-17T13:58:28;13.10;99.90
15231;DHT22;32569;51.762;8.564;2023-02-17T14:00:56;13.00;99.90
15231;DHT22;32569;51.762;8.564;2023-02-17T14:03:25;13.00;99.90
15231;DHT22;32569;51.762;8.564;2023-02-17T14:05:53;13.00;99.90
15231;DHT22;32569;51.762;8.564;2023-02-17T14:08:27;13.00;99.90
15231;DHT22;32569;51.762;8.564;2023-02-17T14:10:55;12.90;99.90
15231;DHT22;32569;51.762;8.564;2023-02-17T14:13:23;12.80;99.90
15231;DHT22;32569;51.762;8.564;2023-02-17T14:15:54;12.70;99.90
15231;DHT22;32569;51.762;8.564;2023-02-17T14:18:29;12.60;99.90
15231;DHT22;32569;51.762;8.564;2023-02-17T14:21:03;12.40;99.90
15231;DHT22;32569;51.762;8.564;2023-02-17T14:23:40;12.30;99.90
15231;DHT22;32569;51.762;8.564;2023-02-17T14:26:11;12.10;99.90
15231;DHT22;32569;51.762;8.564;2023-02-17T14:28:38;12.00;99.90
15231;DHT22;32569;51.762;8.564;2023-02-17T14:31:11;12.00;99.90
15231;DHT22;32569;51.762;8.564;2023-02-17T14:33:37;12.00;99.90
15231;DHT22;32569;51.762;8.564;2023-02-17T14:36:05;11.90;99.90
15231;DHT22;32569;51.762;8.564;2023-02-17T14:38:38;11.80;99.90
15231;DHT22;32569;51.762;8.564;2023-02-17T14:41:06;11.90;99.90
15231;DHT22;32569;51.762;8.564;2023-02-17T14:43:34;11.80;99.90
15231;DHT22;32569;51.762;8.564;2023-02-17T14:46:01;11.80;99.90
15231;DHT22;32569;51.762;8.564;2023-02-17T14:48:29;11.80;99.90
15231;DHT22;32569;51.762;8.564;2023-02-17T14:50:56;11.80;99.90
15231;DHT22;32569;51.762;8.564;2023-02-17T14:53:25;11.80;99.90
15231;DHT22;32569;51.762;8.564;2023-02-17T14:55:56;11.80;99.90
15231;DHT22;32569;51.762;8.564;2023-02-17T14:58:25;11.80;99.90
15231;DHT22;32569;51.762;8.564;2023-02-17T15:00:53;11.80;99.90
15231;DHT22;32569;51.762;8.564;2023-02-17T15:03:20;11.80;99.90
15231;DHT22;32569;51.762;8.564;2023-02-17T15:05:49;11.80;99.90
15231;DHT22;32569;51.762;8.564;2023-02-17T15:08:18;11.70;99.90
15231;DHT22;32569;51.762;8.564;2023-02-17T15:10:47;11.70;99.90
15231;DHT22;32569;51.762;8.564;2023-02-17T15:13:15;11.70;99.90
15231;DHT22;32569;51.762;8.564;2023-02-17T15:15:43;11.70;99.90
15231;DHT22;32569;51.762;8.564;2023-02-17T15:18:12;11.70;99.90
15231;DHT22;32569;51.762;8.564;2023-02-17T15:20:41;11.70;99.90
15231;DHT22;32569;51.762;8.564;2023-02-17T15:23:11;11.60;99.90
15231;DHT22;32569;51.762;8.564;2023-02-17T15:25:39;11.60;99.90
15231;DHT22;32569;51.762;8.564;2023-02-17T15:28:06;11.60;99.90
15231;DHT22;32569;51.762;8.564;2023-02-17T15:30:34;11.50;99.90
15231;DHT22;32569;51.762;8.564;2023-02-17T15:33:01;11.50;99.90
15231;DHT22;32569;51.762;8.564;2023-02-17T15:35:28;11.40;99.90
15231;DHT22;32569;51.762;8.564;2023-02-17T15:37:55;11.40;99.90
15231;DHT22;32569;51.762;8.564;2023-02-17T15:40:25;11.40;99.90
15231;DHT22;32569;51.762;8.564;2023-02-17T15:42:54;11.40;99.90
15231;DHT22;32569;51.762;8.564;2023-02-17T15:45:23;11.30;99.90
15231;DHT22;32569;51.762;8.564;2023-02-17T15:47:51;11.30;99.90
15231;DHT22;32569;51.762;8.564;2023-02-17T15:50:22;11.30;99.90
15231;DHT22;32569;51.762;8.564;2023-02-17T15:52:49;11.30;99.90
15231;DHT22;32569;51.762;8.564;2023-02-17T15:55:17;11.40;99.90
15231;DHT22;32569;51.762;8.564;2023-02-17T15:57:48;11.30;99.90